createdAt,value
2022-11-12T00:01:01.151Z,0.7
2022-11-12T00:03:31.731Z,0.6
2022-11-12T00:06:02.351Z,0.6
2022-11-12T00:11:13.099Z,0.4
2022-11-12T00:13:43.682Z,0.4
2022-11-12T00:16:14.317Z,0.2
2022-11-12T00:18:44.922Z,0.3
2022-11-12T00:21:25.533Z,0.2
2022-11-12T00:23:56.143Z,0.1
2022-11-12T00:26:26.730Z,0.1
2022-11-12T00:28:57.321Z,0.0
2022-11-12T00:31:27.936Z,0.1
2022-11-12T00:33:58.529Z,0.0
2022-11-12T00:36:39.125Z,-0.1
2022-11-12T00:39:09.694Z,0.0
2022-11-12T00:41:40.321Z,0.0
2022-11-12T00:44:10.932Z,0.0
2022-11-12T00:46:41.516Z,0.0
2022-11-12T00:51:52.270Z,0.0
2022-11-12T00:54:22.866Z,0.0
2022-11-12T00:56:53.492Z,0.0
2022-11-12T00:59:24.093Z,0.0
2022-11-12T01:01:54.689Z,0.0
2022-11-12T01:04:25.320Z,0.0
2022-11-12T01:07:06.054Z,0.0
2022-11-12T01:09:36.808Z,-0.1
2022-11-12T01:12:07.386Z,-0.1
2022-11-12T01:14:37.973Z,-0.1
2022-11-12T01:17:08.560Z,-0.1
2022-11-12T01:19:39.312Z,0.0
2022-11-12T01:22:19.920Z,-0.1
2022-11-12T01:24:50.606Z,-0.1
2022-11-12T01:27:21.190Z,-0.1
2022-11-12T01:32:21.933Z,-0.1
2022-11-12T01:34:52.521Z,0.1
2022-11-12T01:37:33.112Z,0.1
2022-11-12T01:40:03.697Z,0.2
2022-11-12T01:42:34.312Z,0.2
2022-11-12T01:45:14.919Z,0.3
2022-11-12T01:47:45.500Z,0.3
2022-11-12T01:50:26.108Z,0.2
2022-11-12T01:52:56.710Z,0.2
2022-11-12T01:55:27.319Z,0.3
2022-11-12T01:57:57.925Z,0.3
2022-11-12T02:00:28.508Z,0.3
2022-11-12T02:02:59.173Z,0.3
2022-11-12T02:05:39.793Z,0.3
2022-11-12T02:08:10.393Z,0.3
2022-11-12T02:13:11.164Z,0.3
2022-11-12T02:15:41.781Z,0.2
2022-11-12T02:18:12.393Z,0.2
2022-11-12T02:20:53.013Z,0.2
2022-11-12T02:23:23.586Z,0.2
2022-11-12T02:25:54.187Z,0.1
2022-11-12T02:28:25.056Z,0.2
2022-11-12T02:30:55.814Z,0.3
2022-11-12T02:33:26.412Z,0.2
2022-11-12T02:36:07.024Z,0.3
2022-11-12T02:38:37.619Z,0.3
2022-11-12T02:41:08.225Z,0.3
2022-11-12T02:43:38.829Z,0.2
2022-11-12T02:46:09.455Z,0.2
2022-11-12T02:48:40.033Z,0.2
2022-11-12T02:53:50.775Z,0.1
2022-11-12T02:56:21.376Z,0.1
2022-11-12T02:58:51.963Z,0.1
2022-11-12T03:01:22.566Z,0.1
2022-11-12T03:04:03.274Z,0.1
2022-11-12T03:06:34.360Z,0.0
2022-11-12T03:09:05.174Z,0.0
2022-11-12T03:11:35.763Z,0.0
2022-11-12T03:14:06.340Z,-0.1
2022-11-12T03:16:36.931Z,-0.1
2022-11-12T03:19:17.512Z,-0.2
2022-11-12T03:21:48.083Z,-0.2
2022-11-12T03:24:18.670Z,-0.2
2022-11-12T03:26:49.277Z,-0.3
2022-11-12T03:29:19.889Z,-0.3
2022-11-12T03:34:30.646Z,-0.3
2022-11-12T03:37:05.720Z,-0.3
2022-11-12T03:39:36.322Z,-0.4
2022-11-12T03:42:06.941Z,-0.5
2022-11-12T03:44:37.546Z,-0.5
2022-11-12T03:47:08.128Z,-0.6
2022-11-12T03:49:48.733Z,-0.7
2022-11-12T03:52:19.322Z,-0.7
2022-11-12T03:54:49.912Z,-0.9
2022-11-12T03:57:20.544Z,-0.9
2022-11-12T04:02:31.296Z,-0.9
2022-11-12T04:05:01.910Z,-1.0
2022-11-12T04:07:32.526Z,-1.0
2022-11-12T04:10:03.126Z,-1.1
2022-11-12T04:15:03.878Z,-1.0
2022-11-12T04:17:44.490Z,-1.1
2022-11-12T04:20:15.082Z,-1.1
2022-11-12T04:22:45.666Z,-1.2
2022-11-12T04:25:16.259Z,-1.1
2022-11-12T04:27:46.881Z,-1.2
2022-11-12T04:30:17.510Z,-1.2
2022-11-12T04:32:58.149Z,-1.1
2022-11-12T04:35:28.747Z,-1.1
2022-11-12T04:37:59.489Z,-1.1
2022-11-12T04:40:30.103Z,-1.1
2022-11-12T04:43:00.702Z,-1.1
2022-11-12T04:45:31.325Z,-1.1
2022-11-12T04:48:11.948Z,-1.1
2022-11-12T04:50:42.549Z,-1.1
2022-11-12T04:55:43.320Z,-1.2
2022-11-12T04:58:13.897Z,-1.2
2022-11-12T05:00:55.106Z,-1.2
2022-11-12T05:03:25.921Z,-1.2
2022-11-12T05:05:56.540Z,-1.2
2022-11-12T05:08:27.406Z,-1.2
2022-11-12T05:10:58.221Z,-1.1
2022-11-12T05:13:33.254Z,-1.1
2022-11-12T05:16:13.858Z,-1.1
2022-11-12T05:18:44.450Z,-0.9
2022-11-12T05:21:15.027Z,-0.9
2022-11-12T05:23:42.422Z,-0.9
2022-11-12T05:26:13.025Z,-0.9
2022-11-12T05:28:43.618Z,-0.9
2022-11-12T05:31:28.977Z,-0.9
2022-11-12T05:36:29.709Z,-0.9
2022-11-12T05:39:00.318Z,-0.9
2022-11-12T05:41:45.173Z,-0.9
2022-11-12T05:44:04.686Z,-0.9
2022-11-12T05:46:45.277Z,-0.9
2022-11-12T05:49:15.869Z,-0.9
2022-11-12T05:51:46.466Z,-0.9
2022-11-12T05:54:17.078Z,-1.0
2022-11-12T05:56:47.692Z,-1.0
2022-11-12T05:59:18.277Z,-0.9
2022-11-12T06:01:58.864Z,-0.9
2022-11-12T06:04:29.683Z,-0.9
2022-11-12T06:07:00.280Z,-1.1
2022-11-12T06:09:31.107Z,-1.1
2022-11-12T06:12:01.709Z,-1.2
2022-11-12T06:17:12.470Z,-1.1
2022-11-12T06:19:43.072Z,-1.1
2022-11-12T06:22:13.671Z,-1.2
2022-11-12T06:24:44.248Z,-1.2
2022-11-12T06:27:14.852Z,-1.3
2022-11-12T06:29:55.473Z,-1.3
2022-11-12T06:32:26.071Z,-1.3
2022-11-12T06:34:56.639Z,-1.3
2022-11-12T06:37:27.214Z,-1.3
2022-11-12T06:39:57.827Z,-1.4
2022-11-12T06:42:28.439Z,-1.4
2022-11-12T06:45:09.060Z,-1.5
2022-11-12T06:47:39.616Z,-1.5
2022-11-12T06:50:10.221Z,-1.4
2022-11-12T06:52:40.812Z,-1.3
2022-11-12T06:57:41.608Z,-1.4
2022-11-12T07:00:22.211Z,-1.4
2022-11-12T07:02:52.778Z,-1.4
2022-11-12T07:05:23.807Z,-1.3
2022-11-12T07:07:54.396Z,-1.3
2022-11-12T07:10:24.979Z,-1.2
2022-11-12T07:12:55.548Z,-1.2
2022-11-12T07:15:36.139Z,-1.1
2022-11-12T07:18:06.734Z,-1.1
2022-11-12T07:20:37.764Z,-1.2
2022-11-12T07:23:08.336Z,-1.2
2022-11-12T07:25:38.909Z,-1.0
2022-11-12T07:28:19.525Z,-1.0
2022-11-12T07:30:50.477Z,-0.9
2022-11-12T07:33:21.076Z,-0.8
2022-11-12T07:38:31.823Z,-0.8
2022-11-12T07:41:02.433Z,-0.7
2022-11-12T07:43:43.048Z,-0.8
2022-11-12T07:46:13.653Z,-0.7
2022-11-12T07:48:44.220Z,-0.7
2022-11-12T07:51:14.810Z,-0.5
2022-11-12T07:53:45.541Z,-0.5
2022-11-12T07:56:09.995Z,-0.5
2022-11-12T07:58:50.559Z,-0.7
2022-11-12T08:01:21.165Z,-0.5
2022-11-12T08:03:52.108Z,-0.5
2022-11-12T08:06:22.704Z,-0.6
2022-11-12T08:08:53.577Z,-0.5
2022-11-12T08:11:34.181Z,-0.4
2022-11-12T08:14:04.783Z,-0.2
2022-11-12T08:19:05.543Z,-0.1
2022-11-12T08:21:36.141Z,-0.1
2022-11-12T08:24:06.787Z,-0.2
2022-11-12T08:26:47.401Z,-0.1
2022-11-12T08:29:18.013Z,-0.1
2022-11-12T08:31:48.624Z,0.0
2022-11-12T08:34:29.196Z,0.1
2022-11-12T08:36:59.761Z,0.1
2022-11-12T08:39:30.374Z,0.0
2022-11-12T08:42:10.974Z,0.0
2022-11-12T08:44:41.626Z,0.1
2022-11-12T08:47:12.235Z,0.1
2022-11-12T08:49:47.739Z,0.3
2022-11-12T08:52:08.582Z,0.4
2022-11-12T08:54:39.303Z,0.3
2022-11-12T08:59:50.054Z,0.5
2022-11-12T09:02:20.645Z,0.6
2022-11-12T09:04:51.216Z,0.6
2022-11-12T09:07:43.757Z,0.5
2022-11-12T09:10:09.146Z,0.7
2022-11-12T09:12:39.716Z,0.9
2022-11-12T09:15:36.063Z,1.1
2022-11-12T09:17:37.095Z,1.2
2022-11-12T09:20:07.688Z,1.2
2022-11-12T09:22:38.288Z,1.1
2022-11-12T09:25:18.870Z,1.1
2022-11-12T09:27:49.459Z,1.2
2022-11-12T09:30:20.083Z,1.1
2022-11-12T09:32:50.708Z,1.2
2022-11-12T09:35:21.314Z,1.4
2022-11-12T09:40:32.086Z,1.3
2022-11-12T09:43:02.702Z,1.5
2022-11-12T09:45:33.302Z,1.5
2022-11-12T09:48:07.346Z,1.5
2022-11-12T09:50:38.396Z,1.7
2022-11-12T09:53:18.983Z,1.8
2022-11-12T09:55:44.586Z,1.9
2022-11-12T09:58:15.194Z,2.1
2022-11-12T10:00:46.383Z,2.2
2022-11-12T10:03:16.982Z,2.1
2022-11-12T10:05:47.591Z,2.0
2022-11-12T10:08:31.010Z,2.2
2022-11-12T10:11:01.624Z,2.3
2022-11-12T10:13:32.218Z,2.3
2022-11-12T10:16:02.792Z,2.3
2022-11-12T10:21:03.536Z,2.6
2022-11-12T10:23:44.145Z,2.7
2022-11-12T10:26:14.742Z,2.6
2022-11-12T10:28:45.299Z,2.7
2022-11-12T10:31:15.906Z,3.0
2022-11-12T10:33:46.500Z,3.1
2022-11-12T10:36:27.092Z,2.9
2022-11-12T10:38:57.680Z,3.1
2022-11-12T10:41:28.329Z,3.1
2022-11-12T10:43:58.962Z,3.2
2022-11-12T10:46:29.551Z,3.4
2022-11-12T10:49:00.114Z,3.5
2022-11-12T10:51:40.731Z,3.3
2022-11-12T10:54:11.343Z,3.3
2022-11-12T10:56:41.966Z,3.6
2022-11-12T11:01:46.392Z,3.7
2022-11-12T11:04:17.285Z,3.8
2022-11-12T11:06:57.978Z,3.6
2022-11-12T11:09:28.690Z,3.5
2022-11-12T11:11:59.310Z,3.6
2022-11-12T11:14:29.909Z,3.5
2022-11-12T11:19:30.644Z,3.9
2022-11-12T11:22:11.272Z,3.7
2022-11-12T11:24:41.939Z,3.9
2022-11-12T11:27:12.528Z,3.7
2022-11-12T11:29:43.108Z,4.0
2022-11-12T11:32:13.724Z,4.3
2022-11-12T11:34:57.875Z,4.4
2022-11-12T11:37:28.459Z,4.5
2022-11-12T11:42:29.208Z,4.4
2022-11-12T11:44:59.822Z,4.3
2022-11-12T11:47:38.847Z,4.3
2022-11-12T11:50:12.884Z,4.3
2022-11-12T11:52:43.458Z,4.6
2022-11-12T11:55:14.090Z,4.7
2022-11-12T11:57:44.680Z,4.8
2022-11-12T12:00:15.277Z,4.7
2022-11-12T12:02:45.880Z,4.4
2022-11-12T12:05:26.506Z,4.5
2022-11-12T12:07:57.121Z,4.7
2022-11-12T12:10:46.503Z,4.9
2022-11-12T12:13:01.908Z,5.2
2022-11-12T12:15:32.500Z,5.1
2022-11-12T12:18:03.078Z,5.1
2022-11-12T12:23:13.885Z,4.8
2022-11-12T12:25:44.484Z,4.8
2022-11-12T12:28:10.479Z,5.1
2022-11-12T12:30:41.087Z,5.2
2022-11-12T12:33:21.721Z,5.1
2022-11-12T12:35:52.336Z,5.2
2022-11-12T12:38:22.933Z,5.2
2022-11-12T12:40:53.500Z,5.2
2022-11-12T12:45:54.267Z,5.1
2022-11-12T12:48:34.890Z,5.1
2022-11-12T12:51:15.500Z,5.1
2022-11-12T12:53:46.089Z,4.9
2022-11-12T12:56:16.702Z,4.9
2022-11-12T12:58:47.309Z,4.9
2022-11-12T13:03:58.044Z,4.7
2022-11-12T13:06:28.701Z,4.7
2022-11-12T13:08:59.554Z,4.7
2022-11-12T13:11:30.237Z,4.8
2022-11-12T13:14:00.844Z,4.8
2022-11-12T13:16:31.441Z,4.7
2022-11-12T13:19:12.058Z,4.7
2022-11-12T13:21:42.667Z,4.7
2022-11-12T13:24:13.254Z,4.7
2022-11-12T13:26:43.829Z,4.7
2022-11-12T13:29:14.424Z,4.6
2022-11-12T13:31:55.069Z,4.6
2022-11-12T13:34:25.677Z,4.4
2022-11-12T13:36:56.275Z,4.4
2022-11-12T13:39:26.866Z,4.4
2022-11-12T13:44:27.601Z,4.3
2022-11-12T13:47:05.183Z,4.3
2022-11-12T13:49:35.785Z,4.3
2022-11-12T13:52:06.373Z,4.2
2022-11-12T13:54:36.985Z,4.2
2022-11-12T13:57:11.622Z,4.1
2022-11-12T13:59:44.680Z,4.1
2022-11-12T14:02:25.274Z,4.1
2022-11-12T14:04:51.638Z,4.1
2022-11-12T14:07:22.272Z,4.1
2022-11-12T14:09:52.913Z,4.1
2022-11-12T14:12:23.533Z,4.1
2022-11-12T14:14:54.128Z,4.1
2022-11-12T14:17:34.733Z,4.1
2022-11-12T14:20:05.379Z,4.1
2022-11-12T14:25:06.157Z,3.9
2022-11-12T14:27:36.743Z,3.9
2022-11-12T14:30:07.338Z,4.0
2022-11-12T14:32:47.973Z,4.0
2022-11-12T14:35:18.592Z,3.9
2022-11-12T14:37:49.144Z,3.9
2022-11-12T14:40:19.724Z,3.9
2022-11-12T14:42:50.302Z,3.8
2022-11-12T14:45:37.411Z,3.7
2022-11-12T14:48:08.002Z,3.7
2022-11-12T14:50:41.104Z,3.7
2022-11-12T14:53:02.942Z,3.7
2022-11-12T14:55:35.609Z,3.5
2022-11-12T14:58:06.193Z,3.5
2022-11-12T15:00:46.848Z,3.5
2022-11-12T15:05:47.765Z,3.3
2022-11-12T15:08:18.380Z,3.3
2022-11-12T15:10:48.978Z,3.1
2022-11-12T15:13:19.569Z,3.1
2022-11-12T15:16:00.670Z,3.0
2022-11-12T15:18:31.252Z,3.0
2022-11-12T15:21:01.851Z,2.9
2022-11-12T15:23:32.452Z,2.8
2022-11-12T15:26:03.036Z,2.8
2022-11-12T15:28:34.680Z,2.7
2022-11-12T15:31:15.307Z,2.7
2022-11-12T15:33:45.912Z,2.7
2022-11-12T15:36:16.504Z,2.6
2022-11-12T15:38:47.096Z,2.5
2022-11-12T15:41:17.682Z,2.5
2022-11-12T15:46:38.471Z,2.4
2022-11-12T15:49:09.047Z,2.3
2022-11-12T15:51:39.635Z,2.3
2022-11-12T15:54:10.220Z,2.3
2022-11-12T15:56:40.831Z,2.3
2022-11-12T15:59:21.485Z,2.3
2022-11-12T16:01:52.089Z,2.1
2022-11-12T16:04:22.666Z,2.1
2022-11-12T16:06:53.378Z,2.1
2022-11-12T16:09:24.111Z,2.1
2022-11-12T16:11:54.723Z,2.1
2022-11-12T16:14:35.324Z,2.0
2022-11-12T16:17:05.924Z,2.0
2022-11-12T16:19:36.773Z,2.0
2022-11-12T16:22:07.374Z,2.0
2022-11-12T16:27:08.117Z,2.0
2022-11-12T16:29:48.747Z,1.9
2022-11-12T16:32:19.390Z,1.9
2022-11-12T16:34:49.987Z,1.8
2022-11-12T16:37:22.010Z,1.8
2022-11-12T16:39:52.584Z,1.8
2022-11-12T16:42:23.200Z,1.8
2022-11-12T16:45:03.829Z,1.8
2022-11-12T16:47:34.417Z,1.8
2022-11-12T16:50:05.026Z,1.8
2022-11-12T16:52:35.611Z,1.8
2022-11-12T16:55:06.211Z,1.8
2022-11-12T16:57:46.829Z,1.7
2022-11-12T17:00:17.428Z,1.7
2022-11-12T17:02:52.202Z,1.7
2022-11-12T17:07:43.866Z,1.6
2022-11-12T17:10:24.486Z,1.7
2022-11-12T17:13:05.067Z,1.6
2022-11-12T17:15:36.172Z,1.5
2022-11-12T17:18:06.743Z,1.6
2022-11-12T17:20:37.360Z,1.6
2022-11-12T17:23:01.911Z,1.9
2022-11-12T17:25:32.510Z,1.7
2022-11-12T17:28:13.094Z,1.7
2022-11-12T17:30:43.704Z,1.7
2022-11-12T17:33:14.307Z,1.8
2022-11-12T17:35:45.168Z,1.7
2022-11-12T17:38:15.769Z,1.7
2022-11-12T17:40:46.365Z,1.7
2022-11-12T17:43:27.122Z,1.6
2022-11-12T17:48:27.932Z,1.6
2022-11-12T17:50:58.517Z,1.6
2022-11-12T17:53:29.632Z,1.7
2022-11-12T17:56:00.360Z,1.7
2022-11-12T17:58:40.969Z,1.5
2022-11-12T18:01:11.605Z,1.5
2022-11-12T18:03:42.420Z,1.5
2022-11-12T18:06:13.011Z,1.4
2022-11-12T18:08:43.594Z,1.2
2022-11-12T18:11:14.181Z,1.2
2022-11-12T18:13:54.786Z,1.1
2022-11-12T18:16:25.377Z,1.0
2022-11-12T18:18:56.012Z,1.0
2022-11-12T18:21:36.640Z,1.0
2022-11-12T18:24:07.265Z,1.0
2022-11-12T18:29:18.031Z,0.9
2022-11-12T18:31:48.638Z,0.9
2022-11-12T18:34:19.254Z,0.9
2022-11-12T18:36:49.847Z,0.9
2022-11-12T18:39:20.388Z,0.9
2022-11-12T18:42:00.995Z,0.9
2022-11-12T18:44:31.589Z,0.8
2022-11-12T18:47:02.188Z,0.7
2022-11-12T18:49:32.752Z,0.7
2022-11-12T18:52:03.330Z,0.8
2022-11-12T18:54:33.926Z,0.7
2022-11-12T18:57:14.561Z,0.6
2022-11-12T18:59:45.183Z,0.6
2022-11-12T19:02:15.776Z,0.5
2022-11-12T19:04:46.377Z,0.5
2022-11-12T19:09:47.138Z,0.4
2022-11-12T19:12:32.103Z,0.5
2022-11-12T19:15:02.678Z,0.5
2022-11-12T19:17:30.586Z,0.4
2022-11-12T19:20:01.672Z,0.5
2022-11-12T19:22:32.252Z,0.5
2022-11-12T19:25:02.874Z,0.4
2022-11-12T19:27:43.515Z,0.5
2022-11-12T19:30:14.124Z,0.5
2022-11-12T19:35:14.870Z,0.5
2022-11-12T19:37:45.472Z,0.5
2022-11-12T19:40:26.082Z,0.5
2022-11-12T19:42:56.707Z,0.5
2022-11-12T19:45:27.297Z,0.4
2022-11-12T19:50:28.040Z,0.4
2022-11-12T19:52:58.610Z,0.3
2022-11-12T19:55:40.005Z,0.5
2022-11-12T19:58:10.717Z,0.3
2022-11-12T20:00:41.619Z,0.3
2022-11-12T20:03:12.590Z,0.3
2022-11-12T20:08:13.332Z,0.3
2022-11-12T20:10:54.178Z,0.2
2022-11-12T20:13:24.787Z,0.2
2022-11-12T20:15:55.386Z,0.1
2022-11-12T20:18:30.094Z,0.1
2022-11-12T20:21:01.578Z,-0.1
2022-11-12T20:23:32.186Z,-0.1
2022-11-12T20:26:12.815Z,-0.2
2022-11-12T20:31:13.550Z,-0.4
2022-11-12T20:33:44.143Z,-0.5
2022-11-12T20:36:14.769Z,-0.5
2022-11-12T20:38:55.355Z,-0.6
2022-11-12T20:41:25.945Z,-0.8
2022-11-12T20:43:56.488Z,-0.9
2022-11-12T20:46:27.096Z,-1.0
2022-11-12T20:48:57.680Z,-1.0
2022-11-12T20:51:28.261Z,-1.0
2022-11-12T20:54:08.860Z,-1.0
2022-11-12T20:56:39.469Z,-1.1
2022-11-12T20:59:10.091Z,-1.1
2022-11-12T21:01:40.791Z,-1.2
2022-11-12T21:04:11.420Z,-1.3
2022-11-12T21:06:42.054Z,-1.3
2022-11-12T21:11:55.864Z,-1.3
2022-11-12T21:14:26.578Z,-1.4
2022-11-12T21:16:50.814Z,-1.4
2022-11-12T21:19:21.413Z,-1.5
2022-11-12T21:21:52.026Z,-1.6
2022-11-12T21:24:32.632Z,-1.7
2022-11-12T21:27:03.213Z,-1.7
2022-11-12T21:29:43.806Z,-1.8
2022-11-12T21:32:14.381Z,-1.9
2022-11-12T21:34:44.984Z,-2.0
2022-11-12T21:37:25.608Z,-1.9
2022-11-12T21:39:56.205Z,-2.0
2022-11-12T21:42:26.815Z,-2.1
2022-11-12T21:44:57.431Z,-2.1
2022-11-12T21:47:28.038Z,-2.1
2022-11-12T21:52:38.784Z,-2.1
2022-11-12T21:55:09.384Z,-2.2
2022-11-12T21:57:40.040Z,-2.3
2022-11-12T22:00:39.463Z,-2.2
2022-11-12T22:02:40.455Z,-2.3
2022-11-12T22:05:11.145Z,-2.4
2022-11-12T22:07:51.757Z,-2.4
2022-11-12T22:10:22.362Z,-2.4
2022-11-12T22:17:56.983Z,-2.5
2022-11-12T22:20:37.578Z,-2.6
2022-11-12T22:23:08.174Z,-2.7
2022-11-12T22:25:38.795Z,-2.6
2022-11-12T22:28:09.402Z,-2.6
2022-11-12T22:33:10.419Z,-2.6
2022-11-12T22:35:51.026Z,-2.7
2022-11-12T22:38:21.654Z,-2.8
2022-11-12T22:40:52.268Z,-2.8
2022-11-12T22:43:22.847Z,-2.7
2022-11-12T22:45:53.445Z,-2.8
2022-11-12T22:48:24.142Z,-2.9
2022-11-12T22:51:04.920Z,-2.9
2022-11-12T22:53:35.586Z,-2.8
2022-11-12T22:56:06.196Z,-2.9
2022-11-12T22:58:36.969Z,-2.9
2022-11-12T23:01:07.668Z,-2.9
2022-11-12T23:03:38.516Z,-2.9
2022-11-12T23:06:19.131Z,-2.9
2022-11-12T23:08:49.781Z,-2.9
2022-11-12T23:13:50.531Z,-3.1
2022-11-12T23:16:21.113Z,-3.2
2022-11-12T23:18:51.761Z,-3.3
2022-11-12T23:21:32.392Z,-3.2
2022-11-12T23:24:03.003Z,-3.2
2022-11-12T23:26:33.604Z,-3.3
2022-11-12T23:29:04.194Z,-3.3
2022-11-12T23:31:34.774Z,-3.3
2022-11-12T23:34:15.382Z,-3.4
2022-11-12T23:36:45.981Z,-3.4
2022-11-12T23:39:16.551Z,-3.4
2022-11-12T23:41:47.126Z,-3.5
2022-11-12T23:44:17.699Z,-3.5
2022-11-12T23:46:48.294Z,-3.5
2022-11-12T23:49:28.883Z,-3.5
2022-11-12T23:54:29.598Z,-3.6
2022-11-12T23:57:00.209Z,-3.5
2022-11-12T23:59:30.808Z,-3.4
